sensor_id;sensor_type;location;lat;lon;timestamp;pressure;altitude;pressure_sealevel;temperature;humidity
42887;BME280;29032;56.028;92.904;2023-12-22T00:01:23;100804.81;;;-7.03;48.33
42887;BME280;29032;56.028;92.904;2023-12-22T00:06:25;100800.94;;;-7.05;48.50
42887;BME280;29032;56.028;92.904;2023-12-22T00:11:29;100821.91;;;-7.06;48.78
42887;BME280;29032;56.028;92.904;2023-12-22T00:16:31;100823.09;;;-7.07;48.83
42887;BME280;29032;56.028;92.904;2023-12-22T00:21:33;100829.28;;;-7.03;48.87
42887;BME280;29032;56.028;92.904;2023-12-22T00:26:37;100840.75;;;-6.77;48.71
42887;BME280;29032;56.028;92.904;2023-12-22T00:31:39;100838.28;;;-6.65;48.08
42887;BME280;29032;56.028;92.904;2023-12-22T00:36:41;100838.16;;;-6.50;48.05
42887;BME280;29032;56.028;92.904;2023-12-22T00:41:45;100842.88;;;-6.54;47.98
42887;BME280;29032;56.028;92.904;2023-12-22T00:46:47;100855.44;;;-6.68;48.20
42887;BME280;29032;56.028;92.904;2023-12-22T00:51:49;100851.19;;;-6.72;48.76
42887;BME280;29032;56.028;92.904;2023-12-22T00:56:53;100858.56;;;-6.69;48.70
42887;BME280;29032;56.028;92.904;2023-12-22T01:01:55;100863.22;;;-6.70;48.65
42887;BME280;29032;56.028;92.904;2023-12-22T01:06:57;100867.97;;;-6.81;48.94
42887;BME280;29032;56.028;92.904;2023-12-22T01:12:01;100862.16;;;-6.83;49.20
42887;BME280;29032;56.028;92.904;2023-12-22T01:17:03;100864.13;;;-6.87;49.09
42887;BME280;29032;56.028;92.904;2023-12-22T01:22:05;100864.84;;;-6.79;48.93
42887;BME280;29032;56.028;92.904;2023-12-22T01:27:10;100878.03;;;-6.74;49.05
42887;BME280;29032;56.028;92.904;2023-12-22T01:32:12;100865.31;;;-6.92;49.18
42887;BME280;29032;56.028;92.904;2023-12-22T01:37:14;100876.66;;;-6.97;49.54
42887;BME280;29032;56.028;92.904;2023-12-22T01:42:18;100880.16;;;-7.00;49.67
42887;BME280;29032;56.028;92.904;2023-12-22T01:47:20;100884.47;;;-7.02;49.60
42887;BME280;29032;56.028;92.904;2023-12-22T01:52:23;100884.06;;;-7.01;49.86
42887;BME280;29032;56.028;92.904;2023-12-22T01:57:28;100901.13;;;-6.97;49.55
42887;BME280;29032;56.028;92.904;2023-12-22T02:02:31;100901.59;;;-7.05;49.84
42887;BME280;29032;56.028;92.904;2023-12-22T02:07:33;100901.22;;;-7.11;50.46
42887;BME280;29032;56.028;92.904;2023-12-22T02:12:37;100901.22;;;-7.11;50.16
42887;BME280;29032;56.028;92.904;2023-12-22T02:17:44;100907.44;;;-7.14;50.41
42887;BME280;29032;56.028;92.904;2023-12-22T02:22:52;100914.44;;;-7.13;50.18
42887;BME280;29032;56.028;92.904;2023-12-22T02:27:58;100914.84;;;-7.15;50.40
42887;BME280;29032;56.028;92.904;2023-12-22T02:33:04;100915.59;;;-7.11;50.23
42887;BME280;29032;56.028;92.904;2023-12-22T02:38:08;100933.44;;;-7.06;50.57
42887;BME280;29032;56.028;92.904;2023-12-22T02:43:12;100937.31;;;-7.03;50.59
42887;BME280;29032;56.028;92.904;2023-12-22T02:48:15;100943.50;;;-6.96;50.40
42887;BME280;29032;56.028;92.904;2023-12-22T02:53:18;100945.88;;;-7.05;50.60
42887;BME280;29032;56.028;92.904;2023-12-22T02:58:20;100958.69;;;-7.02;50.82
42887;BME280;29032;56.028;92.904;2023-12-22T03:03:23;100963.31;;;-6.95;50.80
42887;BME280;29032;56.028;92.904;2023-12-22T03:08:27;100958.97;;;-6.86;50.91
42887;BME280;29032;56.028;92.904;2023-12-22T03:13:29;100965.84;;;-6.63;50.42
42887;BME280;29032;56.028;92.904;2023-12-22T03:18:31;100963.78;;;-6.48;49.53
42887;BME280;29032;56.028;92.904;2023-12-22T03:23:35;100957.97;;;-6.54;49.81
42887;BME280;29032;56.028;92.904;2023-12-22T03:28:37;100963.44;;;-6.58;49.69
42887;BME280;29032;56.028;92.904;2023-12-22T03:33:39;100980.13;;;-6.48;49.57
42887;BME280;29032;56.028;92.904;2023-12-22T03:38:43;100984.22;;;-6.30;49.70
42887;BME280;29032;56.028;92.904;2023-12-22T03:43:45;100987.28;;;-6.20;49.18
42887;BME280;29032;56.028;92.904;2023-12-22T03:48:47;100982.16;;;-6.15;49.15
42887;BME280;29032;56.028;92.904;2023-12-22T03:53:51;100981.84;;;-6.20;49.36
42887;BME280;29032;56.028;92.904;2023-12-22T03:58:53;100977.19;;;-6.23;49.35
42887;BME280;29032;56.028;92.904;2023-12-22T04:03:55;100984.97;;;-6.25;49.75
42887;BME280;29032;56.028;92.904;2023-12-22T04:08:59;100974.09;;;-6.25;49.69
42887;BME280;29032;56.028;92.904;2023-12-22T04:14:01;100988.56;;;-6.36;49.42
42887;BME280;29032;56.028;92.904;2023-12-22T04:19:03;100985.88;;;-6.39;50.08
42887;BME280;29032;56.028;92.904;2023-12-22T04:24:07;100990.44;;;-6.25;49.43
42887;BME280;29032;56.028;92.904;2023-12-22T04:29:10;100985.41;;;-6.27;49.94
42887;BME280;29032;56.028;92.904;2023-12-22T04:34:13;100983.38;;;-6.19;49.14
42887;BME280;29032;56.028;92.904;2023-12-22T04:39:17;100979.47;;;-6.18;49.21
42887;BME280;29032;56.028;92.904;2023-12-22T04:44:19;101002.13;;;-6.29;49.73
42887;BME280;29032;56.028;92.904;2023-12-22T04:49:22;101004.06;;;-6.25;49.40
42887;BME280;29032;56.028;92.904;2023-12-22T04:54:25;100989.94;;;-6.13;49.37
42887;BME280;29032;56.028;92.904;2023-12-22T04:59:27;100998.06;;;-6.06;49.43
42887;BME280;29032;56.028;92.904;2023-12-22T05:04:30;100994.88;;;-5.97;49.12
42887;BME280;29032;56.028;92.904;2023-12-22T05:09:33;100990.13;;;-5.93;49.21
42887;BME280;29032;56.028;92.904;2023-12-22T05:14:35;100995.56;;;-5.90;48.59
42887;BME280;29032;56.028;92.904;2023-12-22T05:19:38;101000.19;;;-5.83;48.65
42887;BME280;29032;56.028;92.904;2023-12-22T05:24:41;101000.59;;;-5.88;48.79
42887;BME280;29032;56.028;92.904;2023-12-22T05:29:44;100998.72;;;-5.95;49.34
42887;BME280;29032;56.028;92.904;2023-12-22T05:34:46;101000.19;;;-5.83;48.89
42887;BME280;29032;56.028;92.904;2023-12-22T05:39:49;101005.56;;;-5.76;49.12
42887;BME280;29032;56.028;92.904;2023-12-22T05:44:52;101006.41;;;-5.83;48.98
42887;BME280;29032;56.028;92.904;2023-12-22T05:49:54;101006.03;;;-5.85;49.11
42887;BME280;29032;56.028;92.904;2023-12-22T05:54:58;100999.41;;;-5.84;49.08
42887;BME280;29032;56.028;92.904;2023-12-22T06:00:00;101006.97;;;-5.61;49.90
42887;BME280;29032;56.028;92.904;2023-12-22T06:05:02;100990.34;;;-5.36;48.77
42887;BME280;29032;56.028;92.904;2023-12-22T06:10:07;100998.88;;;-5.34;47.98
42887;BME280;29032;56.028;92.904;2023-12-22T06:15:10;101006.09;;;-5.51;48.77
42887;BME280;29032;56.028;92.904;2023-12-22T06:20:12;101007.63;;;-5.50;48.08
42887;BME280;29032;56.028;92.904;2023-12-22T06:25:16;101013.09;;;-5.50;48.54
42887;BME280;29032;56.028;92.904;2023-12-22T06:30:18;101006.09;;;-5.54;48.07
42887;BME280;29032;56.028;92.904;2023-12-22T06:35:20;101006.13;;;-5.58;48.17
42887;BME280;29032;56.028;92.904;2023-12-22T06:40:24;100991.41;;;-5.64;48.43
42887;BME280;29032;56.028;92.904;2023-12-22T06:45:26;100991.81;;;-5.65;48.56
42887;BME280;29032;56.028;92.904;2023-12-22T06:50:28;100991.34;;;-5.57;48.41
42887;BME280;29032;56.028;92.904;2023-12-22T06:55:32;100995.03;;;-5.40;48.37
42887;BME280;29032;56.028;92.904;2023-12-22T07:00:34;101000.78;;;-5.31;48.23
42887;BME280;29032;56.028;92.904;2023-12-22T07:05:36;100997.78;;;-5.09;47.99
42887;BME280;29032;56.028;92.904;2023-12-22T07:10:40;101000.59;;;-4.86;46.74
42887;BME280;29032;56.028;92.904;2023-12-22T07:15:42;100990.41;;;-4.82;47.09
42887;BME280;29032;56.028;92.904;2023-12-22T07:20:44;100977.13;;;-4.80;46.55
42887;BME280;29032;56.028;92.904;2023-12-22T07:25:48;100971.56;;;-4.73;46.71
42887;BME280;29032;56.028;92.904;2023-12-22T07:30:50;100962.88;;;-4.68;46.54
42887;BME280;29032;56.028;92.904;2023-12-22T07:35:52;100960.81;;;-4.60;47.30
42887;BME280;29032;56.028;92.904;2023-12-22T07:40:56;100944.63;;;-4.47;46.23
42887;BME280;29032;56.028;92.904;2023-12-22T07:45:58;100945.41;;;-4.47;46.20
42887;BME280;29032;56.028;92.904;2023-12-22T07:51:00;100940.59;;;-4.39;47.31
42887;BME280;29032;56.028;92.904;2023-12-22T07:56:05;100942.91;;;-4.14;46.19
42887;BME280;29032;56.028;92.904;2023-12-22T08:01:07;100938.81;;;-4.02;46.16
42887;BME280;29032;56.028;92.904;2023-12-22T08:06:10;100938.72;;;-3.99;45.14
42887;BME280;29032;56.028;92.904;2023-12-22T08:11:13;100930.50;;;-4.19;45.79
42887;BME280;29032;56.028;92.904;2023-12-22T08:16:15;100938.50;;;-4.31;46.41
42887;BME280;29032;56.028;92.904;2023-12-22T08:21:18;100924.81;;;-4.28;46.58
42887;BME280;29032;56.028;92.904;2023-12-22T08:26:21;100925.75;;;-4.38;46.37
42887;BME280;29032;56.028;92.904;2023-12-22T08:31:23;100913.84;;;-4.75;47.35
42887;BME280;29032;56.028;92.904;2023-12-22T08:36:26;100912.50;;;-4.86;47.80
42887;BME280;29032;56.028;92.904;2023-12-22T08:41:29;100909.38;;;-4.88;47.91
42887;BME280;29032;56.028;92.904;2023-12-22T08:46:32;100903.22;;;-4.93;47.82
42887;BME280;29032;56.028;92.904;2023-12-22T08:51:34;100893.09;;;-4.96;48.28
42887;BME280;29032;56.028;92.904;2023-12-22T08:56:38;100891.41;;;-4.86;48.17
42887;BME280;29032;56.028;92.904;2023-12-22T09:01:40;100881.94;;;-4.78;47.66
42887;BME280;29032;56.028;92.904;2023-12-22T09:06:43;100886.94;;;-4.73;47.94
42887;BME280;29032;56.028;92.904;2023-12-22T09:11:47;100897.34;;;-4.68;47.81
42887;BME280;29032;56.028;92.904;2023-12-22T09:16:49;100897.44;;;-4.71;47.94
42887;BME280;29032;56.028;92.904;2023-12-22T09:21:51;100883.88;;;-4.78;47.74
42887;BME280;29032;56.028;92.904;2023-12-22T09:26:55;100877.16;;;-4.74;48.07
42887;BME280;29032;56.028;92.904;2023-12-22T09:31:57;100869.06;;;-4.77;48.02
42887;BME280;29032;56.028;92.904;2023-12-22T09:36:59;100877.91;;;-4.70;48.22
42887;BME280;29032;56.028;92.904;2023-12-22T09:42:03;100889.47;;;-4.62;47.66
42887;BME280;29032;56.028;92.904;2023-12-22T09:47:06;100889.22;;;-4.48;47.35
42887;BME280;29032;56.028;92.904;2023-12-22T09:52:08;100887.63;;;-4.45;47.39
42887;BME280;29032;56.028;92.904;2023-12-22T09:57:13;100871.81;;;-4.34;47.83
42887;BME280;29032;56.028;92.904;2023-12-22T10:02:16;100870.44;;;-4.22;47.35
42887;BME280;29032;56.028;92.904;2023-12-22T10:07:19;100866.91;;;-3.99;46.80
42887;BME280;29032;56.028;92.904;2023-12-22T10:12:24;100865.28;;;-3.77;46.75
42887;BME280;29032;56.028;92.904;2023-12-22T10:17:28;100845.84;;;-3.63;45.71
42887;BME280;29032;56.028;92.904;2023-12-22T10:22:31;100835.44;;;-3.52;45.61
42887;BME280;29032;56.028;92.904;2023-12-22T10:27:36;100821.63;;;-3.44;45.42
42887;BME280;29032;56.028;92.904;2023-12-22T10:32:40;100822.38;;;-3.44;45.06
42887;BME280;29032;56.028;92.904;2023-12-22T10:37:42;100826.38;;;-3.48;45.55
42887;BME280;29032;56.028;92.904;2023-12-22T10:42:46;100817.50;;;-3.36;44.51
42887;BME280;29032;56.028;92.904;2023-12-22T10:47:50;100826.00;;;-3.31;45.18
42887;BME280;29032;56.028;92.904;2023-12-22T10:52:53;100815.81;;;-3.30;44.97
42887;BME280;29032;56.028;92.904;2023-12-22T10:57:57;100832.84;;;-3.22;45.25
42887;BME280;29032;56.028;92.904;2023-12-22T11:03:06;100815.81;;;-3.14;43.96
42887;BME280;29032;56.028;92.904;2023-12-22T11:08:11;100808.53;;;-3.20;44.32
42887;BME280;29032;56.028;92.904;2023-12-22T11:13:16;100800.59;;;-3.31;44.28
42887;BME280;29032;56.028;92.904;2023-12-22T11:18:20;100789.72;;;-3.51;44.43
42887;BME280;29032;56.028;92.904;2023-12-22T11:23:23;100786.63;;;-3.89;45.26
42887;BME280;29032;56.028;92.904;2023-12-22T11:28:28;100784.19;;;-4.03;45.56
42887;BME280;29032;56.028;92.904;2023-12-22T11:33:31;100785.22;;;-3.97;45.52
42887;BME280;29032;56.028;92.904;2023-12-22T11:38:35;100772.75;;;-3.98;45.45
42887;BME280;29032;56.028;92.904;2023-12-22T11:43:40;100772.94;;;-3.89;45.39
42887;BME280;29032;56.028;92.904;2023-12-22T11:48:47;100763.22;;;-3.90;45.41
42887;BME280;29032;56.028;92.904;2023-12-22T11:53:49;100768.00;;;-3.94;45.34
42887;BME280;29032;56.028;92.904;2023-12-22T11:58:53;100758.50;;;-3.90;44.92
42887;BME280;29032;56.028;92.904;2023-12-22T12:03:56;100757.41;;;-3.92;45.47
42887;BME280;29032;56.028;92.904;2023-12-22T12:09:01;100755.00;;;-3.90;45.06
42887;BME280;29032;56.028;92.904;2023-12-22T12:14:09;100746.81;;;-3.90;45.36
42887;BME280;29032;56.028;92.904;2023-12-22T12:19:14;100761.47;;;-3.81;45.45
42887;BME280;29032;56.028;92.904;2023-12-22T12:24:18;100753.59;;;-3.78;52.07
42887;BME280;29032;56.028;92.904;2023-12-22T12:29:22;100745.66;;;-3.73;45.97
42887;BME280;29032;56.028;92.904;2023-12-22T12:34:25;100742.22;;;-3.77;46.21
42887;BME280;29032;56.028;92.904;2023-12-22T12:39:30;100747.84;;;-3.84;46.62
42887;BME280;29032;56.028;92.904;2023-12-22T12:44:35;100732.66;;;-3.85;46.76
42887;BME280;29032;56.028;92.904;2023-12-22T12:49:37;100728.34;;;-4.02;47.89
42887;BME280;29032;56.028;92.904;2023-12-22T12:54:40;100722.09;;;-4.03;48.29
42887;BME280;29032;56.028;92.904;2023-12-22T12:59:46;100707.31;;;-4.05;48.97
42887;BME280;29032;56.028;92.904;2023-12-22T13:04:48;100702.44;;;-4.14;48.98
42887;BME280;29032;56.028;92.904;2023-12-22T13:09:51;100712.41;;;-4.24;49.82
42887;BME280;29032;56.028;92.904;2023-12-22T13:14:54;100696.13;;;-4.31;50.53
42887;BME280;29032;56.028;92.904;2023-12-22T13:19:56;100692.53;;;-4.44;51.04
42887;BME280;29032;56.028;92.904;2023-12-22T13:24:59;100669.25;;;-4.52;51.63
42887;BME280;29032;56.028;92.904;2023-12-22T13:30:03;100660.31;;;-4.73;52.71
42887;BME280;29032;56.028;92.904;2023-12-22T13:35:06;100655.63;;;-4.72;53.06
42887;BME280;29032;56.028;92.904;2023-12-22T13:40:09;100649.41;;;-4.73;53.33
42887;BME280;29032;56.028;92.904;2023-12-22T13:45:13;100659.47;;;-4.70;54.08
42887;BME280;29032;56.028;92.904;2023-12-22T13:50:16;100651.75;;;-4.55;54.07
42887;BME280;29032;56.028;92.904;2023-12-22T13:55:19;100651.03;;;-4.39;53.39
42887;BME280;29032;56.028;92.904;2023-12-22T14:00:27;100649.91;;;-4.22;53.41
42887;BME280;29032;56.028;92.904;2023-12-22T14:05:29;100652.47;;;-4.15;52.88
42887;BME280;29032;56.028;92.904;2023-12-22T14:10:31;100624.28;;;-4.12;53.19
42887;BME280;29032;56.028;92.904;2023-12-22T14:15:35;100628.06;;;-4.05;53.06
42887;BME280;29032;56.028;92.904;2023-12-22T14:20:37;100627.22;;;-4.02;53.27
42887;BME280;29032;56.028;92.904;2023-12-22T14:25:39;100636.34;;;-4.09;53.43
42887;BME280;29032;56.028;92.904;2023-12-22T14:30:43;100639.41;;;-4.07;53.75
42887;BME280;29032;56.028;92.904;2023-12-22T14:35:45;100628.53;;;-4.11;54.03
42887;BME280;29032;56.028;92.904;2023-12-22T14:40:47;100630.28;;;-4.17;54.39
42887;BME280;29032;56.028;92.904;2023-12-22T14:45:51;100607.00;;;-4.25;54.95
42887;BME280;29032;56.028;92.904;2023-12-22T14:50:53;100606.56;;;-4.40;55.38
42887;BME280;29032;56.028;92.904;2023-12-22T14:55:56;100601.25;;;-4.47;55.40
42887;BME280;29032;56.028;92.904;2023-12-22T15:00:59;100598.59;;;-4.50;56.12
42887;BME280;29032;56.028;92.904;2023-12-22T15:06:03;100594.69;;;-4.49;55.64
42887;BME280;29032;56.028;92.904;2023-12-22T15:11:05;100603.31;;;-4.71;56.83
42887;BME280;29032;56.028;92.904;2023-12-22T15:16:09;100604.88;;;-4.70;56.62
42887;BME280;29032;56.028;92.904;2023-12-22T15:21:19;100602.47;;;-4.68;56.67
42887;BME280;29032;56.028;92.904;2023-12-22T15:26:21;100591.69;;;-4.75;56.24
42887;BME280;29032;56.028;92.904;2023-12-22T15:31:25;100577.56;;;-4.70;56.58
42887;BME280;29032;56.028;92.904;2023-12-22T15:36:27;100577.84;;;-4.64;56.40
42887;BME280;29032;56.028;92.904;2023-12-22T15:41:30;100561.94;;;-4.69;56.53
42887;BME280;29032;56.028;92.904;2023-12-22T15:46:33;100565.63;;;-4.59;56.89
42887;BME280;29032;56.028;92.904;2023-12-22T15:51:36;100571.94;;;-4.63;56.92
42887;BME280;29032;56.028;92.904;2023-12-22T15:56:38;100560.88;;;-4.55;56.41
42887;BME280;29032;56.028;92.904;2023-12-22T16:01:45;100547.16;;;-4.52;57.52
42887;BME280;29032;56.028;92.904;2023-12-22T16:06:47;100550.56;;;-4.48;56.46
42887;BME280;29032;56.028;92.904;2023-12-22T16:11:49;100557.97;;;-4.48;56.61
42887;BME280;29032;56.028;92.904;2023-12-22T16:17:11;100537.00;;;-4.35;56.09
42887;BME280;29032;56.028;92.904;2023-12-22T16:22:14;100535.81;;;-4.34;56.41
42887;BME280;29032;56.028;92.904;2023-12-22T16:27:16;100535.31;;;-4.29;55.71
42887;BME280;29032;56.028;92.904;2023-12-22T16:32:22;100547.25;;;-4.23;55.46
42887;BME280;29032;56.028;92.904;2023-12-22T16:37:25;100548.69;;;-4.18;55.66
42887;BME280;29032;56.028;92.904;2023-12-22T16:42:27;100538.69;;;-4.25;55.71
42887;BME280;29032;56.028;92.904;2023-12-22T16:47:30;100539.72;;;-4.19;55.15
42887;BME280;29032;56.028;92.904;2023-12-22T16:52:33;100532.31;;;-4.18;55.51
42887;BME280;29032;56.028;92.904;2023-12-22T16:57:35;100514.53;;;-4.10;55.60
42887;BME280;29032;56.028;92.904;2023-12-22T17:02:39;100521.78;;;-4.03;55.90
42887;BME280;29032;56.028;92.904;2023-12-22T17:07:41;100539.75;;;-4.02;55.89
42887;BME280;29032;56.028;92.904;2023-12-22T17:12:43;100534.53;;;-3.97;55.73
42887;BME280;29032;56.028;92.904;2023-12-22T17:17:47;100548.63;;;-3.98;55.67
42887;BME280;29032;56.028;92.904;2023-12-22T17:22:49;100539.97;;;-3.97;56.04
42887;BME280;29032;56.028;92.904;2023-12-22T17:27:51;100538.00;;;-3.96;55.62
42887;BME280;29032;56.028;92.904;2023-12-22T17:32:55;100549.97;;;-3.90;56.26
42887;BME280;29032;56.028;92.904;2023-12-22T17:37:57;100545.97;;;-3.86;55.32
42887;BME280;29032;56.028;92.904;2023-12-22T17:42:59;100552.91;;;-3.81;55.36
42887;BME280;29032;56.028;92.904;2023-12-22T17:48:04;100532.16;;;-3.95;55.53
42887;BME280;29032;56.028;92.904;2023-12-22T17:53:06;100545.03;;;-3.79;55.56
42887;BME280;29032;56.028;92.904;2023-12-22T17:58:08;100549.78;;;-3.67;55.02
42887;BME280;29032;56.028;92.904;2023-12-22T18:03:12;100542.34;;;-3.66;55.01
42887;BME280;29032;56.028;92.904;2023-12-22T18:08:14;100535.25;;;-3.64;55.17
42887;BME280;29032;56.028;92.904;2023-12-22T18:13:16;100533.34;;;-3.50;54.97
42887;BME280;29032;56.028;92.904;2023-12-22T18:18:20;100538.63;;;-3.43;54.26
42887;BME280;29032;56.028;92.904;2023-12-22T18:23:22;100527.25;;;-3.42;54.40
42887;BME280;29032;56.028;92.904;2023-12-22T18:28:24;100532.06;;;-3.33;54.19
42887;BME280;29032;56.028;92.904;2023-12-22T18:33:28;100534.97;;;-3.24;54.32
42887;BME280;29032;56.028;92.904;2023-12-22T18:38:30;100541.72;;;-3.29;53.88
42887;BME280;29032;56.028;92.904;2023-12-22T18:43:32;100542.16;;;-3.30;54.21
42887;BME280;29032;56.028;92.904;2023-12-22T18:48:36;100540.53;;;-3.28;53.93
42887;BME280;29032;56.028;92.904;2023-12-22T18:53:38;100532.03;;;-3.17;53.77
42887;BME280;29032;56.028;92.904;2023-12-22T18:58:40;100545.91;;;-3.24;54.05
42887;BME280;29032;56.028;92.904;2023-12-22T19:03:44;100540.44;;;-3.24;53.78
42887;BME280;29032;56.028;92.904;2023-12-22T19:08:46;100548.09;;;-3.19;54.21
42887;BME280;29032;56.028;92.904;2023-12-22T19:13:48;100539.81;;;-3.15;53.68
42887;BME280;29032;56.028;92.904;2023-12-22T19:18:52;100544.00;;;-2.98;53.69
42887;BME280;29032;56.028;92.904;2023-12-22T19:23:54;100553.13;;;-2.88;52.96
42887;BME280;29032;56.028;92.904;2023-12-22T19:28:57;100566.50;;;-2.78;53.30
42887;BME280;29032;56.028;92.904;2023-12-22T19:34:00;100569.38;;;-2.68;53.07
42887;BME280;29032;56.028;92.904;2023-12-22T19:39:03;100572.44;;;-2.66;53.30
42887;BME280;29032;56.028;92.904;2023-12-22T19:44:05;100562.25;;;-2.66;53.65
42887;BME280;29032;56.028;92.904;2023-12-22T19:49:08;100574.41;;;-2.67;54.72
42887;BME280;29032;56.028;92.904;2023-12-22T19:54:11;100572.63;;;-2.86;55.21
42887;BME280;29032;56.028;92.904;2023-12-22T19:59:13;100563.72;;;-3.03;56.46
42887;BME280;29032;56.028;92.904;2023-12-22T20:04:16;100570.28;;;-3.01;56.92
42887;BME280;29032;56.028;92.904;2023-12-22T20:09:19;100578.19;;;-3.03;56.73
42887;BME280;29032;56.028;92.904;2023-12-22T20:14:21;100579.13;;;-3.09;56.62
42887;BME280;29032;56.028;92.904;2023-12-22T20:19:24;100576.03;;;-3.11;57.18
42887;BME280;29032;56.028;92.904;2023-12-22T20:24:26;100580.56;;;-3.05;56.93
42887;BME280;29032;56.028;92.904;2023-12-22T20:29:29;100594.59;;;-3.03;56.47
42887;BME280;29032;56.028;92.904;2023-12-22T20:34:32;100604.66;;;-3.00;56.69
42887;BME280;29032;56.028;92.904;2023-12-22T20:39:35;100600.72;;;-2.99;56.42
42887;BME280;29032;56.028;92.904;2023-12-22T20:44:37;100605.75;;;-2.97;56.33
42887;BME280;29032;56.028;92.904;2023-12-22T20:49:40;100601.22;;;-2.87;56.66
42887;BME280;29032;56.028;92.904;2023-12-22T20:54:43;100596.59;;;-2.90;56.74
42887;BME280;29032;56.028;92.904;2023-12-22T20:59:45;100595.53;;;-2.80;56.42
42887;BME280;29032;56.028;92.904;2023-12-22T21:04:48;100588.31;;;-2.74;56.55
42887;BME280;29032;56.028;92.904;2023-12-22T21:09:51;100588.97;;;-2.70;56.36
42887;BME280;29032;56.028;92.904;2023-12-22T21:14:53;100593.47;;;-2.63;56.26
42887;BME280;29032;56.028;92.904;2023-12-22T21:19:56;100592.28;;;-2.50;55.50
42887;BME280;29032;56.028;92.904;2023-12-22T21:24:59;100580.88;;;-2.61;55.41
42887;BME280;29032;56.028;92.904;2023-12-22T21:30:01;100591.91;;;-2.77;56.20
42887;BME280;29032;56.028;92.904;2023-12-22T21:35:05;100586.31;;;-2.86;56.27
42887;BME280;29032;56.028;92.904;2023-12-22T21:40:08;100587.84;;;-2.85;56.15
42887;BME280;29032;56.028;92.904;2023-12-22T21:45:11;100591.78;;;-2.86;56.53
42887;BME280;29032;56.028;92.904;2023-12-22T21:50:15;100590.91;;;-2.83;56.51
42887;BME280;29032;56.028;92.904;2023-12-22T21:55:17;100594.41;;;-2.95;57.00
42887;BME280;29032;56.028;92.904;2023-12-22T22:00:19;100593.44;;;-2.89;56.27
42887;BME280;29032;56.028;92.904;2023-12-22T22:05:23;100595.28;;;-2.86;56.23
42887;BME280;29032;56.028;92.904;2023-12-22T22:10:25;100601.84;;;-2.83;55.97
42887;BME280;29032;56.028;92.904;2023-12-22T22:15:27;100598.59;;;-2.78;55.43
42887;BME280;29032;56.028;92.904;2023-12-22T22:20:31;100609.47;;;-2.75;55.66
42887;BME280;29032;56.028;92.904;2023-12-22T22:25:34;100607.13;;;-2.76;55.13
42887;BME280;29032;56.028;92.904;2023-12-22T22:30:36;100607.13;;;-2.76;55.37
42887;BME280;29032;56.028;92.904;2023-12-22T22:35:40;100617.13;;;-2.70;55.36
42887;BME280;29032;56.028;92.904;2023-12-22T22:40:42;100614.38;;;-2.70;55.38
42887;BME280;29032;56.028;92.904;2023-12-22T22:45:44;100614.19;;;-2.75;56.00
42887;BME280;29032;56.028;92.904;2023-12-22T22:50:48;100612.84;;;-2.71;56.00
42887;BME280;29032;56.028;92.904;2023-12-22T22:55:50;100610.88;;;-2.70;55.94
42887;BME280;29032;56.028;92.904;2023-12-22T23:00:52;100615.94;;;-2.68;56.26
42887;BME280;29032;56.028;92.904;2023-12-22T23:05:56;100611.75;;;-2.73;56.37
42887;BME280;29032;56.028;92.904;2023-12-22T23:10:58;100615.50;;;-2.67;56.40
42887;BME280;29032;56.028;92.904;2023-12-22T23:16:00;100622.19;;;-2.68;56.22
42887;BME280;29032;56.028;92.904;2023-12-22T23:21:04;100628.84;;;-2.69;56.75
42887;BME280;29032;56.028;92.904;2023-12-22T23:26:06;100629.28;;;-2.71;56.05
42887;BME280;29032;56.028;92.904;2023-12-22T23:31:09;100631.81;;;-2.63;56.07
42887;BME280;29032;56.028;92.904;2023-12-22T23:36:12;100636.28;;;-2.40;56.09
42887;BME280;29032;56.028;92.904;2023-12-22T23:41:14;100636.59;;;-2.38;55.81
42887;BME280;29032;56.028;92.904;2023-12-22T23:46:17;100637.59;;;-2.32;55.48
42887;BME280;29032;56.028;92.904;2023-12-22T23:51:20;100637.78;;;-2.27;55.54
42887;BME280;29032;56.028;92.904;2023-12-22T23:56:22;100635.94;;;-2.17;55.81
